createdAt,value
2023-02-14T00:00:27.481Z,19.90
2023-02-14T00:02:54.040Z,20.35
2023-02-14T00:05:20.585Z,18.17
2023-02-14T00:07:47.118Z,19.77
2023-02-14T00:10:13.615Z,19.33
2023-02-14T00:12:40.103Z,17.52
2023-02-14T00:15:25.305Z,17.48
2023-02-14T00:17:55.842Z,19.23
2023-02-14T00:20:23.073Z,20.00
2023-02-14T00:22:49.886Z,17.40
2023-02-14T00:25:16.421Z,17.20
2023-02-14T00:27:42.927Z,18.38
2023-02-14T00:30:11.181Z,19.47
2023-02-14T00:32:41.580Z,15.70
2023-02-14T00:35:08.760Z,16.07
2023-02-14T00:37:35.802Z,15.60
2023-02-14T00:40:02.308Z,16.15
2023-02-14T00:42:28.783Z,16.63
2023-02-14T00:44:55.241Z,15.10
2023-02-14T00:47:21.752Z,17.58
2023-02-14T00:49:48.196Z,16.50
2023-02-14T00:52:14.657Z,16.00
2023-02-14T00:54:41.119Z,18.67
2023-02-14T00:57:07.586Z,14.90
2023-02-14T00:59:36.019Z,17.73
2023-02-14T01:02:16.389Z,15.77
2023-02-14T01:04:42.883Z,15.18
2023-02-14T01:07:09.349Z,15.13
2023-02-14T01:09:35.797Z,14.90
2023-02-14T01:12:02.416Z,16.45
2023-02-14T01:14:28.915Z,16.20
2023-02-14T01:16:55.411Z,15.60
2023-02-14T01:19:24.152Z,17.70
2023-02-14T01:21:50.609Z,14.85
2023-02-14T01:24:17.067Z,16.98
2023-02-14T01:26:43.521Z,17.23
2023-02-14T01:29:09.968Z,15.40
2023-02-14T01:31:36.550Z,17.58
2023-02-14T01:34:03.756Z,16.70
2023-02-14T01:36:33.457Z,17.63
2023-02-14T01:39:02.376Z,16.88
2023-02-14T01:41:30.990Z,17.30
2023-02-14T01:44:06.520Z,16.50
2023-02-14T01:46:36.098Z,18.17
2023-02-14T01:49:27.078Z,15.18
2023-02-14T01:52:18.406Z,17.10
2023-02-14T01:54:50.842Z,15.20
2023-02-14T01:57:19.360Z,14.27
2023-02-14T01:59:53.243Z,16.48
2023-02-14T02:02:23.647Z,15.75
2023-02-14T02:04:54.122Z,14.73
2023-02-14T02:07:24.493Z,14.90
2023-02-14T02:09:55.344Z,16.02
2023-02-14T02:12:23.390Z,16.83
2023-02-14T02:14:53.033Z,15.43
2023-02-14T02:17:28.466Z,16.20
2023-02-14T02:20:19.890Z,19.02
2023-02-14T02:23:01.630Z,15.52
2023-02-14T02:25:58.880Z,17.05
2023-02-14T02:28:42.127Z,19.27
2023-02-14T02:31:32.993Z,17.95
2023-02-14T02:34:19.272Z,19.63
2023-02-14T02:37:00.906Z,18.02
2023-02-14T02:39:30.053Z,16.65
2023-02-14T02:42:31.882Z,17.15
2023-02-14T02:45:10.167Z,14.40
2023-02-14T02:47:58.988Z,20.13
2023-02-14T02:50:49.045Z,17.20
2023-02-14T02:53:53.380Z,19.83
2023-02-14T02:56:44.136Z,18.50
2023-02-14T02:59:20.635Z,18.17
2023-02-14T03:02:11.232Z,20.08
2023-02-14T03:04:55.473Z,18.63
2023-02-14T03:07:37.400Z,16.88
2023-02-14T03:10:11.452Z,17.13
2023-02-14T03:13:05.313Z,16.58
2023-02-14T03:16:08.736Z,17.67
2023-02-14T03:18:59.969Z,17.52
2023-02-14T03:21:37.832Z,14.18
2023-02-14T03:24:10.108Z,16.77
2023-02-14T03:26:47.515Z,18.38
2023-02-14T03:29:37.123Z,16.98
2023-02-14T03:32:15.479Z,14.10
2023-02-14T03:34:48.397Z,14.75
2023-02-14T03:37:20.028Z,15.63
2023-02-14T03:40:02.253Z,12.27
2023-02-14T03:42:36.943Z,17.88
2023-02-14T03:45:04.919Z,17.60
2023-02-14T03:47:33.288Z,14.35
2023-02-14T03:50:28.620Z,17.95
2023-02-14T03:52:56.386Z,13.38
2023-02-14T03:55:28.256Z,15.40
2023-02-14T03:58:04.219Z,12.18
2023-02-14T04:00:31.863Z,14.68
2023-02-14T04:03:05.732Z,18.13
2023-02-14T04:05:32.541Z,17.08
2023-02-14T04:07:59.206Z,14.18
2023-02-14T04:10:26.361Z,16.67
2023-02-14T04:12:53.158Z,15.68
2023-02-14T04:15:19.614Z,15.52
2023-02-14T04:18:04.470Z,12.38
2023-02-14T04:20:30.979Z,17.00
2023-02-14T04:22:57.767Z,15.18
2023-02-14T04:25:24.355Z,14.82
2023-02-14T04:27:51.020Z,14.85
2023-02-14T04:30:18.087Z,14.57
2023-02-14T04:32:44.717Z,17.38
2023-02-14T04:35:11.503Z,18.58
2023-02-14T04:37:38.267Z,16.70
2023-02-14T04:40:05.473Z,14.10
2023-02-14T04:42:32.181Z,15.63
2023-02-14T04:44:58.859Z,15.30
2023-02-14T04:47:25.454Z,14.25
2023-02-14T04:49:52.158Z,12.00
2023-02-14T04:52:18.828Z,13.52
2023-02-14T04:54:45.289Z,18.17
2023-02-14T04:57:12.041Z,13.55
2023-02-14T04:59:38.559Z,15.18
2023-02-14T05:02:05.230Z,15.27
2023-02-14T05:04:31.827Z,15.90
2023-02-14T05:06:58.428Z,16.25
2023-02-14T05:09:24.929Z,15.38
2023-02-14T05:11:51.893Z,14.88
2023-02-14T05:14:18.392Z,15.40
2023-02-14T05:16:45.118Z,15.15
2023-02-14T05:19:11.752Z,15.65
2023-02-14T05:21:38.623Z,16.50
2023-02-14T05:24:05.907Z,14.30
2023-02-14T05:26:32.975Z,16.58
2023-02-14T05:28:59.389Z,15.00
2023-02-14T05:31:26.165Z,14.02
2023-02-14T05:33:52.837Z,13.80
2023-02-14T05:36:19.485Z,14.98
2023-02-14T05:38:45.964Z,14.30
2023-02-14T05:41:12.750Z,16.67
2023-02-14T05:43:39.188Z,15.18
2023-02-14T05:46:06.333Z,13.80
2023-02-14T05:48:33.771Z,13.35
2023-02-14T05:51:08.572Z,14.65
2023-02-14T05:53:35.767Z,14.65
2023-02-14T05:56:02.625Z,14.35
2023-02-14T05:58:29.119Z,15.15
2023-02-14T06:00:59.777Z,16.70
2023-02-14T06:03:26.689Z,16.20
2023-02-14T06:05:53.121Z,14.68
2023-02-14T06:08:19.838Z,14.60
2023-02-14T06:10:46.725Z,15.70
2023-02-14T06:13:13.249Z,13.60
2023-02-14T06:15:39.720Z,14.85
2023-02-14T06:18:06.414Z,14.70
2023-02-14T06:20:32.922Z,13.85
2023-02-14T06:22:59.442Z,16.50
2023-02-14T06:25:26.125Z,16.23
2023-02-14T06:27:56.695Z,14.07
2023-02-14T06:30:23.284Z,15.40
2023-02-14T06:32:49.861Z,14.75
2023-02-14T06:35:16.631Z,12.85
2023-02-14T06:37:45.150Z,15.27
2023-02-14T06:40:12.445Z,16.00
2023-02-14T06:42:38.983Z,15.82
2023-02-14T06:45:06.064Z,15.05
2023-02-14T06:47:34.889Z,14.50
2023-02-14T06:50:01.677Z,16.33
2023-02-14T06:52:28.146Z,19.15
2023-02-14T06:54:54.591Z,15.93
2023-02-14T06:57:21.071Z,14.50
2023-02-14T06:59:47.556Z,17.80
2023-02-14T07:02:14.073Z,15.87
2023-02-14T07:04:40.768Z,15.18
2023-02-14T07:07:07.245Z,15.57
2023-02-14T07:09:33.700Z,15.70
2023-02-14T07:12:00.188Z,17.90
2023-02-14T07:14:26.832Z,16.63
2023-02-14T07:16:53.317Z,17.83
2023-02-14T07:19:19.772Z,16.53
2023-02-14T07:21:46.262Z,16.45
2023-02-14T07:24:12.744Z,15.70
2023-02-14T07:26:39.210Z,17.35
2023-02-14T07:29:05.659Z,15.88
2023-02-14T07:31:32.240Z,14.67
2023-02-14T07:34:01.145Z,17.27
2023-02-14T07:36:27.734Z,13.82
2023-02-14T07:38:56.011Z,13.55
2023-02-14T07:41:22.647Z,14.73
2023-02-14T07:43:49.114Z,14.82
2023-02-14T07:46:17.335Z,14.85
2023-02-14T07:48:43.925Z,14.10
2023-02-14T07:51:11.134Z,15.23
2023-02-14T07:53:37.677Z,13.25
2023-02-14T07:56:04.273Z,13.43
2023-02-14T07:58:30.745Z,14.27
2023-02-14T08:00:57.369Z,14.32
2023-02-14T08:03:24.009Z,13.98
2023-02-14T08:05:57.043Z,11.65
2023-02-14T08:08:26.051Z,14.25
2023-02-14T08:10:52.492Z,16.05
2023-02-14T08:13:19.022Z,16.25
2023-02-14T08:16:03.955Z,14.05
2023-02-14T08:18:35.849Z,16.63
2023-02-14T08:21:03.166Z,14.47
2023-02-14T08:23:29.744Z,16.23
2023-02-14T08:25:56.419Z,16.65
2023-02-14T08:28:23.329Z,15.90
2023-02-14T08:30:50.219Z,16.02
2023-02-14T08:33:16.755Z,15.98
2023-02-14T08:35:43.252Z,13.73
2023-02-14T08:38:09.766Z,17.15
2023-02-14T08:40:37.059Z,17.53
2023-02-14T08:43:07.497Z,13.03
2023-02-14T08:45:34.003Z,14.55
2023-02-14T08:48:04.844Z,17.50
2023-02-14T08:50:31.431Z,13.05
2023-02-14T08:52:58.228Z,15.47
2023-02-14T08:55:24.783Z,17.60
2023-02-14T08:57:51.319Z,16.23
2023-02-14T09:00:19.338Z,14.57
2023-02-14T09:02:45.813Z,13.88
2023-02-14T09:05:13.098Z,14.52
2023-02-14T09:07:39.584Z,13.07
2023-02-14T09:10:06.803Z,17.03
2023-02-14T09:12:33.263Z,16.23
2023-02-14T09:14:59.743Z,15.50
2023-02-14T09:17:26.186Z,13.43
2023-02-14T09:19:52.661Z,14.13
2023-02-14T09:22:19.850Z,15.40
2023-02-14T09:24:46.351Z,14.73
2023-02-14T09:27:12.803Z,15.40
2023-02-14T09:29:39.265Z,14.37
2023-02-14T09:32:05.838Z,13.80
2023-02-14T09:34:53.141Z,15.10
2023-02-14T09:37:38.082Z,14.47
2023-02-14T09:40:05.327Z,14.60
2023-02-14T09:42:51.022Z,14.10
2023-02-14T09:45:21.868Z,13.73
2023-02-14T09:48:02.888Z,15.87
2023-02-14T09:50:40.349Z,15.67
2023-02-14T09:53:15.531Z,14.30
2023-02-14T09:56:50.319Z,15.87
2023-02-14T09:59:22.762Z,15.03
2023-02-14T10:01:56.758Z,14.80
2023-02-14T10:04:39.872Z,15.23
2023-02-14T10:07:58.000Z,15.30
2023-02-14T10:10:30.745Z,14.83
2023-02-14T10:13:21.239Z,14.20
2023-02-14T10:15:59.143Z,14.83
2023-02-14T10:18:30.718Z,16.30
2023-02-14T10:20:59.466Z,17.40
2023-02-14T10:23:30.628Z,14.57
2023-02-14T10:26:01.465Z,13.90
2023-02-14T10:28:49.119Z,14.93
2023-02-14T10:31:27.758Z,16.20
2023-02-14T10:33:57.545Z,15.53
2023-02-14T10:36:31.559Z,14.63
2023-02-14T10:39:06.534Z,13.77
2023-02-14T10:41:56.122Z,13.20
2023-02-14T10:44:36.355Z,13.97
2023-02-14T10:47:12.143Z,14.33
2023-02-14T10:49:49.912Z,12.47
2023-02-14T10:52:30.301Z,14.20
2023-02-14T10:54:58.925Z,16.10
2023-02-14T10:57:35.787Z,12.77
2023-02-14T11:00:05.265Z,13.37
2023-02-14T11:02:37.892Z,13.90
2023-02-14T11:05:05.474Z,14.93
2023-02-14T11:07:32.501Z,14.70
2023-02-14T11:09:59.200Z,14.77
2023-02-14T11:12:51.876Z,16.00
2023-02-14T11:15:34.014Z,13.20
2023-02-14T11:18:19.995Z,12.60
2023-02-14T11:21:08.825Z,15.27
2023-02-14T11:23:44.077Z,13.80
2023-02-14T11:26:50.010Z,14.80
2023-02-14T11:29:27.031Z,14.40
2023-02-14T11:31:54.618Z,12.40
2023-02-14T11:34:36.381Z,16.30
2023-02-14T11:37:27.756Z,13.07
2023-02-14T11:39:56.403Z,12.47
2023-02-14T11:42:43.943Z,14.43
2023-02-14T11:45:36.070Z,14.40
2023-02-14T11:48:34.890Z,12.37
2023-02-14T11:51:06.058Z,12.60
2023-02-14T11:53:46.090Z,12.17
2023-02-14T11:56:13.521Z,12.63
2023-02-14T11:58:45.471Z,12.53
2023-02-14T12:01:20.109Z,12.50
2023-02-14T12:03:47.676Z,14.30
2023-02-14T12:06:26.422Z,12.27
2023-02-14T12:09:10.717Z,12.80
2023-02-14T12:11:37.584Z,13.93
2023-02-14T12:14:04.125Z,13.07
2023-02-14T12:16:38.758Z,14.17
2023-02-14T12:19:14.120Z,13.00
2023-02-14T12:22:06.124Z,14.20
2023-02-14T12:24:53.135Z,13.27
2023-02-14T12:27:24.746Z,12.03
2023-02-14T12:30:07.695Z,11.70
2023-02-14T12:32:34.815Z,14.50
2023-02-14T12:35:24.255Z,14.87
2023-02-14T12:38:04.711Z,14.00
2023-02-14T12:40:40.576Z,15.20
2023-02-14T12:43:19.838Z,14.80
2023-02-14T12:46:01.982Z,13.03
2023-02-14T12:48:59.274Z,14.10
2023-02-14T12:51:58.348Z,14.83
2023-02-14T12:54:38.218Z,12.13
2023-02-14T12:57:38.951Z,14.40
2023-02-14T13:00:22.144Z,13.77
2023-02-14T13:03:08.784Z,13.53
2023-02-14T13:05:54.024Z,12.80
2023-02-14T13:08:46.374Z,13.67
2023-02-14T13:11:36.220Z,13.47
2023-02-14T13:14:14.716Z,13.13
2023-02-14T13:16:53.093Z,12.83
2023-02-14T13:19:41.736Z,12.87
2023-02-14T13:22:11.604Z,13.87
2023-02-14T13:24:43.296Z,13.23
2023-02-14T13:27:15.586Z,14.47
2023-02-14T13:29:58.040Z,12.63
2023-02-14T13:32:27.441Z,13.93
2023-02-14T13:34:54.231Z,14.70
2023-02-14T13:37:22.880Z,13.77
2023-02-14T13:39:55.690Z,13.70
2023-02-14T13:42:47.555Z,15.33
2023-02-14T13:45:35.289Z,13.30
2023-02-14T13:48:06.516Z,15.00
2023-02-14T13:50:35.044Z,13.53
2023-02-14T13:53:01.518Z,15.27
2023-02-14T13:55:36.347Z,14.37
2023-02-14T13:58:13.117Z,15.20
2023-02-14T14:00:42.076Z,15.47
2023-02-14T14:03:27.746Z,16.63
2023-02-14T14:05:59.777Z,14.90
2023-02-14T14:08:30.713Z,15.47
2023-02-14T14:11:00.208Z,17.07
2023-02-14T14:13:42.079Z,15.67
2023-02-14T14:16:23.670Z,15.67
2023-02-14T14:18:56.499Z,15.90
2023-02-14T14:21:31.097Z,14.40
2023-02-14T14:24:22.951Z,16.53
2023-02-14T14:27:15.342Z,14.80
2023-02-14T14:29:47.755Z,16.43
2023-02-14T14:32:26.265Z,14.90
2023-02-14T14:34:59.827Z,15.73
2023-02-14T14:37:31.682Z,15.47
2023-02-14T14:39:59.980Z,14.60
2023-02-14T14:42:32.311Z,17.40
2023-02-14T14:45:08.003Z,17.03
2023-02-14T14:47:45.288Z,15.70
2023-02-14T14:50:22.367Z,17.10
2023-02-14T14:52:51.283Z,14.83
2023-02-14T14:55:23.702Z,15.57
2023-02-14T14:57:54.461Z,15.90
2023-02-14T15:00:30.011Z,16.00
2023-02-14T15:03:05.026Z,14.17
2023-02-14T15:05:35.754Z,15.73
2023-02-14T15:08:20.468Z,14.00
2023-02-14T15:11:08.237Z,18.57
2023-02-14T15:13:55.016Z,17.90
2023-02-14T15:16:25.149Z,17.40
2023-02-14T15:18:55.041Z,16.20
2023-02-14T15:21:21.582Z,16.90
2023-02-14T15:23:48.141Z,15.87
2023-02-14T15:26:20.197Z,15.70
2023-02-14T15:28:54.550Z,16.20
2023-02-14T15:31:21.372Z,17.37
2023-02-14T15:33:48.003Z,16.00
2023-02-14T15:36:22.450Z,17.40
2023-02-14T15:38:48.905Z,17.40
2023-02-14T15:41:16.819Z,17.17
2023-02-14T15:43:43.287Z,16.20
2023-02-14T15:46:17.815Z,17.03
2023-02-14T15:48:45.300Z,14.37
2023-02-14T15:51:24.447Z,15.47
2023-02-14T15:53:58.354Z,18.10
2023-02-14T15:56:28.572Z,15.33
2023-02-14T15:59:04.836Z,17.50
2023-02-14T16:01:32.848Z,18.03
2023-02-14T16:04:02.458Z,17.93
2023-02-14T16:06:35.440Z,16.03
2023-02-14T16:09:03.127Z,16.80
2023-02-14T16:11:37.273Z,17.40
2023-02-14T16:14:33.037Z,15.57
2023-02-14T16:17:05.894Z,19.13
2023-02-14T16:19:41.484Z,17.67
2023-02-14T16:22:10.260Z,19.73
2023-02-14T16:24:37.884Z,17.50
2023-02-14T16:27:06.949Z,19.20
2023-02-14T16:29:36.694Z,18.80
2023-02-14T16:32:17.766Z,17.40
2023-02-14T16:34:47.037Z,17.50
2023-02-14T16:37:30.266Z,18.30
2023-02-14T16:39:57.682Z,16.77
2023-02-14T16:42:24.296Z,19.60
2023-02-14T16:44:51.054Z,22.20
2023-02-14T16:47:19.297Z,17.70
2023-02-14T16:49:45.859Z,19.40
2023-02-14T16:52:14.994Z,20.10
2023-02-14T16:54:41.723Z,18.88
2023-02-14T16:57:12.363Z,19.43
2023-02-14T16:59:39.007Z,18.77
2023-02-14T17:02:05.609Z,18.70
2023-02-14T17:04:32.206Z,20.23
2023-02-14T17:07:01.655Z,21.30
2023-02-14T17:09:32.171Z,19.50
2023-02-14T17:12:02.202Z,22.50
2023-02-14T17:14:34.292Z,20.77
2023-02-14T17:17:00.914Z,18.80
2023-02-14T17:19:27.413Z,20.50
2023-02-14T17:21:57.657Z,20.50
2023-02-14T17:24:24.169Z,21.40
2023-02-14T17:26:50.600Z,19.70
2023-02-14T17:29:17.061Z,21.87
2023-02-14T17:31:44.031Z,20.03
2023-02-14T17:34:10.857Z,20.83
2023-02-14T17:36:37.765Z,23.07
2023-02-14T17:39:05.207Z,20.50
2023-02-14T17:41:31.856Z,19.15
2023-02-14T17:44:01.303Z,21.03
2023-02-14T17:46:28.799Z,17.77
2023-02-14T17:48:56.106Z,21.90
2023-02-14T17:51:22.597Z,21.43
2023-02-14T17:53:49.542Z,20.80
2023-02-14T17:56:24.220Z,20.13
2023-02-14T17:58:51.859Z,21.33
2023-02-14T18:01:21.214Z,18.90
2023-02-14T18:03:47.794Z,19.90
2023-02-14T18:06:14.472Z,19.98
2023-02-14T18:08:49.256Z,19.03
2023-02-14T18:11:16.644Z,19.40
2023-02-14T18:13:44.373Z,24.42
2023-02-14T18:16:13.348Z,19.03
2023-02-14T18:18:40.092Z,19.87
2023-02-14T18:21:09.053Z,20.25
2023-02-14T18:23:35.731Z,20.30
2023-02-14T18:26:04.736Z,19.25
2023-02-14T18:28:32.121Z,20.65
2023-02-14T18:31:07.175Z,17.37
2023-02-14T18:33:34.640Z,20.45
2023-02-14T18:36:05.482Z,21.07
2023-02-14T18:38:32.071Z,20.20
2023-02-14T18:41:06.427Z,21.73
2023-02-14T18:43:33.063Z,19.08
2023-02-14T18:46:07.950Z,20.00
2023-02-14T18:48:34.811Z,19.67
2023-02-14T18:51:13.416Z,20.05
2023-02-14T18:53:40.370Z,18.98
2023-02-14T18:56:10.357Z,18.95
2023-02-14T18:58:36.903Z,19.63
2023-02-14T19:01:13.987Z,20.40
2023-02-14T19:03:40.639Z,20.90
2023-02-14T19:06:08.380Z,17.88
2023-02-14T19:08:36.835Z,21.35
2023-02-14T19:11:03.850Z,19.83
2023-02-14T19:13:32.151Z,20.60
2023-02-14T19:15:59.419Z,19.80
2023-02-14T19:18:26.355Z,16.60
2023-02-14T19:20:53.054Z,21.83
2023-02-14T19:23:19.626Z,21.10
2023-02-14T19:25:46.097Z,19.98
2023-02-14T19:28:12.587Z,22.05
2023-02-14T19:30:39.317Z,21.40
2023-02-14T19:33:06.842Z,22.23
2023-02-14T19:35:33.312Z,19.88
2023-02-14T19:38:03.367Z,20.73
2023-02-14T19:40:30.779Z,21.20
2023-02-14T19:42:57.224Z,22.90
2023-02-14T19:45:23.752Z,22.27
2023-02-14T19:47:50.651Z,21.48
2023-02-14T19:50:18.803Z,21.10
2023-02-14T19:52:46.767Z,22.50
2023-02-14T19:55:20.714Z,21.67
2023-02-14T19:57:47.944Z,21.42
2023-02-14T20:00:16.197Z,21.92
2023-02-14T20:02:47.911Z,21.17
2023-02-14T20:05:15.897Z,21.77
2023-02-14T20:07:43.418Z,21.67
2023-02-14T20:10:13.723Z,23.83
2023-02-14T20:12:40.172Z,22.38
2023-02-14T20:15:08.708Z,25.95
2023-02-14T20:17:36.301Z,21.45
2023-02-14T20:20:03.122Z,22.38
2023-02-14T20:22:29.612Z,23.05
2023-02-14T20:24:56.088Z,23.30
2023-02-14T20:27:25.460Z,20.15
2023-02-14T20:29:52.279Z,22.38
2023-02-14T20:32:18.823Z,25.48
2023-02-14T20:34:45.338Z,20.88
2023-02-14T20:37:12.043Z,23.50
2023-02-14T20:39:38.689Z,22.27
2023-02-14T20:42:05.653Z,24.00
2023-02-14T20:44:32.099Z,20.75
2023-02-14T20:46:58.577Z,22.98
2023-02-14T20:49:26.891Z,20.08
2023-02-14T20:51:53.840Z,24.08
2023-02-14T20:54:23.351Z,22.85
2023-02-14T20:56:50.719Z,21.80
2023-02-14T20:59:19.255Z,22.77
2023-02-14T21:01:45.753Z,20.95
2023-02-14T21:04:13.892Z,18.20
2023-02-14T21:06:40.442Z,21.65
2023-02-14T21:09:06.964Z,19.15
2023-02-14T21:11:33.511Z,21.35
2023-02-14T21:14:00.935Z,21.73
2023-02-14T21:16:28.808Z,22.48
2023-02-14T21:18:58.991Z,22.30
2023-02-14T21:21:36.061Z,22.73
2023-02-14T21:24:06.011Z,23.80
2023-02-14T21:26:32.504Z,21.67
2023-02-14T21:28:58.979Z,18.80
2023-02-14T21:31:25.716Z,19.65
2023-02-14T21:33:54.530Z,20.58
2023-02-14T21:36:22.346Z,21.48
2023-02-14T21:38:49.119Z,17.70
2023-02-14T21:41:18.672Z,19.35
2023-02-14T21:43:46.546Z,20.90
2023-02-14T21:46:15.718Z,22.80
2023-02-14T21:49:01.372Z,19.88
2023-02-14T21:51:27.929Z,21.10
2023-02-14T21:53:54.981Z,20.95
2023-02-14T21:56:22.204Z,20.25
2023-02-14T21:58:50.629Z,17.58
2023-02-14T22:01:19.453Z,14.82
2023-02-14T22:03:46.187Z,17.77
2023-02-14T22:06:15.546Z,19.40
2023-02-14T22:08:42.763Z,16.13
2023-02-14T22:11:12.907Z,19.65
2023-02-14T22:13:39.620Z,16.90
2023-02-14T22:16:08.739Z,18.83
2023-02-14T22:18:35.238Z,18.80
2023-02-14T22:21:03.640Z,18.35
2023-02-14T22:23:31.208Z,20.52
2023-02-14T22:26:16.869Z,18.20
2023-02-14T22:28:45.427Z,20.02
2023-02-14T22:31:11.971Z,17.35
2023-02-14T22:33:39.061Z,16.25
2023-02-14T22:36:06.813Z,17.58
2023-02-14T22:38:34.118Z,15.45
2023-02-14T22:41:17.439Z,16.02
2023-02-14T22:43:44.622Z,19.15
2023-02-14T22:46:18.087Z,17.95
2023-02-14T22:48:44.900Z,19.02
2023-02-14T22:51:21.733Z,15.68
2023-02-14T22:53:49.742Z,17.02
2023-02-14T22:56:31.076Z,16.30
2023-02-14T22:58:59.680Z,17.52
2023-02-14T23:01:26.707Z,17.50
2023-02-14T23:03:57.529Z,19.45
2023-02-14T23:06:28.843Z,17.63
2023-02-14T23:08:56.139Z,16.67
2023-02-14T23:11:27.788Z,18.95
2023-02-14T23:14:13.546Z,16.75
2023-02-14T23:16:58.835Z,13.38
2023-02-14T23:19:46.423Z,15.68
2023-02-14T23:22:15.929Z,12.77
2023-02-14T23:24:42.856Z,16.15
2023-02-14T23:27:10.445Z,15.18
2023-02-14T23:29:37.215Z,13.95
2023-02-14T23:32:05.244Z,16.13
2023-02-14T23:34:33.253Z,16.48
2023-02-14T23:36:59.842Z,15.65
2023-02-14T23:39:26.311Z,13.77
2023-02-14T23:41:53.809Z,14.50
2023-02-14T23:44:21.219Z,15.52
2023-02-14T23:46:49.584Z,14.23
2023-02-14T23:49:16.543Z,13.82
2023-02-14T23:51:44.327Z,13.77
2023-02-14T23:54:11.614Z,14.70
2023-02-14T23:56:38.452Z,13.20
2023-02-14T23:59:05.676Z,12.73
